world map with LUG marked

LUG - Airport

This information may not be accurate or current and is not valid for navigation or flight planning. No warranty of fitness for any purpose is made or implied.

flag of Switzerland

Donate via PayPal

Additional information is available on the NEW Great Circle Mapper

Location
City:  Lugano, Switzerland
Name:Agno
ICAO / IATA:LSZA / LUG

Details
Type:Airport (Aerodrome, Airfield)
Use:Public/Civil
Latitude:46°00'15"N (46.004275)
Longitude:8°54'38"E (8.910578)
Datum:WGS 1984
Elevation:915 ft (279 m)
Runways:1
Longest:4429 × 98 ft (1350 × 30 m)

Time
Timezone:UTC+1 (DST+2)
Local Time:

Weather
METAR:LSZA  300620Z 01003KT 330V050 9999 FEW002 BKN130 14/14 Q1005 NOSIG

Related Locations
Nearby:
Farthest:CHT: 12134 mi / 19527 km
Waitangi [Tuuta], Chatham Islands, NZ

Find:

   beyond  
but within

Other Information
Maps:
Links:
Sources:

  


 


Great Circle Mapper   Great Circle Mapper
Great Circle Mapper FAQ   Great Circle Mapper FAQ
  Karl's Home Page
KLSē   KLSē Home
   GC on Facebook
Airlines of the World   Airlines of the World
Donate via PayPal


Copyright © 2004-2014, Karl L. Swartz. All rights reserved.
All trademarks mentioned herein belong to their respective owners.

Please see credits for attribution and copyright information.

Karl Swartz <karl@kls2.com>
  Powered by FreeBSD
Valid HTML 4.01!
Labeled with ICRA
hCard Microformat
Geo Microformat